createdAt,value
2022-11-02T00:02:58.411Z,24.22
2022-11-02T00:08:01.147Z,24.12
2022-11-02T00:13:04.650Z,24.01
2022-11-02T00:18:11.099Z,23.94
2022-11-02T00:23:15.741Z,23.86
2022-11-02T00:28:18.527Z,23.78
2022-11-02T00:33:22.762Z,23.69
2022-11-02T00:38:25.472Z,23.61
2022-11-02T00:43:28.215Z,23.53
2022-11-02T00:48:32.345Z,23.45
2022-11-02T00:53:35.887Z,23.37
2022-11-02T00:58:38.617Z,23.30
2022-11-02T01:03:43.015Z,23.25
2022-11-02T01:08:45.723Z,23.18
2022-11-02T01:13:48.539Z,23.16
2022-11-02T01:18:56.399Z,23.13
2022-11-02T01:23:58.990Z,23.10
2022-11-02T01:29:01.597Z,23.07
2022-11-02T01:34:05.557Z,23.03
2022-11-02T01:39:08.517Z,22.99
2022-11-02T01:44:28.577Z,22.93
2022-11-02T01:49:36.852Z,22.88
2022-11-02T01:54:43.510Z,22.83
2022-11-02T01:59:51.150Z,22.79
2022-11-02T02:05:01.142Z,22.77
2022-11-02T02:10:06.951Z,22.74
2022-11-02T02:15:11.663Z,22.71
2022-11-02T02:20:27.227Z,22.66
2022-11-02T02:25:51.683Z,22.60
2022-11-02T02:31:02.755Z,22.59
2022-11-02T02:36:11.728Z,22.55
2022-11-02T02:41:21.844Z,22.51
2022-11-02T02:46:34.521Z,22.48
2022-11-02T02:51:40.791Z,22.44
2022-11-02T02:56:49.674Z,22.41
2022-11-02T03:01:55.602Z,22.39
2022-11-02T03:07:02.530Z,22.36
2022-11-02T03:12:20.854Z,22.34
2022-11-02T03:17:33.666Z,22.31
2022-11-02T03:22:50.465Z,22.29
2022-11-02T03:27:58.071Z,22.27
2022-11-02T03:33:08.449Z,22.25
2022-11-02T03:38:18.267Z,22.23
2022-11-02T03:43:22.861Z,22.20
2022-11-02T03:48:35.948Z,22.14
2022-11-02T03:53:45.609Z,22.14
2022-11-02T03:58:48.778Z,22.11
2022-11-02T04:03:53.049Z,22.09
2022-11-02T04:08:55.763Z,22.08
2022-11-02T04:14:17.185Z,22.05
2022-11-02T04:19:31.083Z,22.03
2022-11-02T04:24:57.812Z,22.02
2022-11-02T04:30:01.178Z,21.99
2022-11-02T04:35:09.687Z,21.98
2022-11-02T04:40:13.436Z,21.95
2022-11-02T04:45:16.831Z,21.91
2022-11-02T04:50:20.921Z,21.91
2022-11-02T04:55:23.922Z,21.89
2022-11-02T05:00:29.057Z,21.87
2022-11-02T05:05:33.318Z,21.86
2022-11-02T05:10:36.770Z,21.83
2022-11-02T05:15:41.203Z,21.82
2022-11-02T05:20:50.998Z,21.80
2022-11-02T05:25:54.958Z,21.79
2022-11-02T05:31:01.434Z,21.78
2022-11-02T05:36:07.700Z,21.78
2022-11-02T05:41:12.882Z,21.77
2022-11-02T05:46:16.841Z,21.76
2022-11-02T05:51:20.772Z,21.75
2022-11-02T05:56:25.138Z,21.74
2022-11-02T06:01:28.086Z,21.73
2022-11-02T06:06:32.477Z,21.72
2022-11-02T06:11:35.184Z,21.71
2022-11-02T06:16:37.742Z,21.68
2022-11-02T06:21:44.459Z,21.67
2022-11-02T06:26:50.053Z,21.65
2022-11-02T06:31:53.949Z,21.65
2022-11-02T06:36:58.028Z,21.64
2022-11-02T06:42:00.578Z,21.63
2022-11-02T06:47:03.206Z,21.63
2022-11-02T06:52:07.215Z,21.62
2022-11-02T06:57:09.838Z,21.62
2022-11-02T07:02:12.508Z,21.61
2022-11-02T07:07:16.557Z,21.62
2022-11-02T07:12:22.889Z,21.62
2022-11-02T07:17:31.061Z,21.61
2022-11-02T07:22:36.074Z,21.61
2022-11-02T07:27:41.902Z,21.61
2022-11-02T07:32:46.230Z,21.60
2022-11-02T07:37:57.949Z,21.60
2022-11-02T07:43:00.699Z,21.60
2022-11-02T07:48:21.201Z,21.60
2022-11-02T07:53:25.296Z,21.61
2022-11-02T07:58:27.940Z,21.59
2022-11-02T08:03:30.896Z,21.58
2022-11-02T08:08:40.490Z,21.59
2022-11-02T08:13:43.160Z,21.58
2022-11-02T08:18:45.798Z,21.58
2022-11-02T08:23:51.779Z,21.58
2022-11-02T08:28:57.421Z,21.57
2022-11-02T08:34:02.516Z,21.58
2022-11-02T08:39:06.731Z,21.57
2022-11-02T08:44:09.382Z,21.58
2022-11-02T08:49:11.975Z,21.60
2022-11-02T08:54:16.629Z,21.60
2022-11-02T08:59:19.400Z,21.62
2022-11-02T09:04:22.206Z,21.62
2022-11-02T09:09:26.180Z,21.63
2022-11-02T09:14:28.976Z,21.63
2022-11-02T09:19:31.692Z,21.64
2022-11-02T09:24:35.646Z,21.64
2022-11-02T09:29:38.251Z,21.64
2022-11-02T09:34:40.951Z,21.65
2022-11-02T09:39:45.029Z,21.67
2022-11-02T09:44:52.095Z,21.65
2022-11-02T09:49:58.042Z,21.67
2022-11-02T09:55:05.543Z,21.70
2022-11-02T10:00:13.948Z,21.69
2022-11-02T10:05:31.300Z,21.75
2022-11-02T10:10:39.405Z,21.79
2022-11-02T10:15:46.224Z,21.82
2022-11-02T10:20:54.141Z,21.82
2022-11-02T10:25:59.367Z,21.87
2022-11-02T10:31:02.969Z,21.92
2022-11-02T10:36:21.869Z,21.96
2022-11-02T10:41:38.870Z,21.99
2022-11-02T10:46:58.222Z,22.00
2022-11-02T10:52:00.996Z,22.05
2022-11-02T10:57:12.921Z,22.09
2022-11-02T11:02:16.876Z,22.13
2022-11-02T11:07:27.279Z,21.86
2022-11-02T11:12:34.098Z,21.59
2022-11-02T11:23:10.950Z,22.02
2022-11-02T11:28:25.311Z,22.16
2022-11-02T11:33:28.064Z,22.25
2022-11-02T11:38:30.781Z,22.26
2022-11-02T11:43:38.411Z,22.27
2022-11-02T11:48:46.165Z,22.40
2022-11-02T11:54:07.923Z,22.52
2022-11-02T11:59:22.022Z,22.55
2022-11-02T12:04:30.492Z,22.54
2022-11-02T12:09:37.765Z,22.55
2022-11-02T12:14:55.925Z,22.70
2022-11-02T12:20:08.500Z,22.74
2022-11-02T12:25:24.772Z,22.78
2022-11-02T12:30:41.759Z,22.71
2022-11-02T12:35:59.814Z,22.70
2022-11-02T12:41:05.562Z,22.71
2022-11-02T12:46:33.948Z,22.76
2022-11-02T12:51:45.720Z,22.75
2022-11-02T12:56:51.621Z,22.82
2022-11-02T13:01:59.489Z,22.78
2022-11-02T13:07:06.919Z,22.80
2022-11-02T13:12:14.653Z,22.85
2022-11-02T13:17:23.499Z,22.93
2022-11-02T13:22:32.027Z,23.02
2022-11-02T13:27:40.480Z,22.97
2022-11-02T13:32:49.831Z,22.93
2022-11-02T13:37:56.337Z,23.00
2022-11-02T13:43:17.222Z,22.98
2022-11-02T13:48:41.219Z,22.92
2022-11-02T13:53:53.444Z,22.87
2022-11-02T13:59:00.635Z,22.85
2022-11-02T14:04:08.104Z,22.85
2022-11-02T14:09:21.555Z,22.80
2022-11-02T14:14:26.296Z,22.84
2022-11-02T14:19:33.501Z,22.81
2022-11-02T14:24:55.981Z,22.78
2022-11-02T14:29:59.245Z,22.76
2022-11-02T14:35:36.500Z,22.75
2022-11-02T14:40:52.653Z,22.74
2022-11-02T14:46:09.406Z,22.73
2022-11-02T14:51:20.446Z,22.71
2022-11-02T14:56:24.915Z,22.71
2022-11-02T15:01:27.659Z,22.71
2022-11-02T15:06:32.329Z,22.71
2022-11-02T15:11:50.316Z,22.71
2022-11-02T15:16:54.167Z,22.68
2022-11-02T15:22:35.436Z,22.67
2022-11-02T15:27:41.146Z,22.65
2022-11-02T15:32:48.930Z,22.66
2022-11-02T15:38:16.362Z,22.58
2022-11-02T15:43:44.665Z,22.42
2022-11-02T15:48:55.216Z,22.32
2022-11-02T15:54:14.730Z,22.24
2022-11-02T16:04:36.237Z,22.15
2022-11-02T16:09:40.724Z,22.22
2022-11-02T16:14:43.958Z,22.34
2022-11-02T16:19:46.977Z,22.42
2022-11-02T16:24:53.254Z,22.51
2022-11-02T16:29:55.956Z,22.57
2022-11-02T16:35:01.037Z,22.58
2022-11-02T16:40:07.474Z,22.65
2022-11-02T16:45:32.202Z,22.77
2022-11-02T16:50:34.837Z,22.86
2022-11-02T16:55:41.859Z,22.92
2022-11-02T17:00:56.310Z,22.96
2022-11-02T17:06:02.075Z,23.03
2022-11-02T17:11:08.789Z,23.07
2022-11-02T17:16:13.387Z,23.10
2022-11-02T17:21:28.882Z,23.14
2022-11-02T17:26:35.886Z,23.20
2022-11-02T17:31:41.295Z,23.25
2022-11-02T17:36:44.774Z,23.30
2022-11-02T17:42:11.499Z,23.33
2022-11-02T17:47:15.720Z,23.36
2022-11-02T17:52:18.325Z,23.38
2022-11-02T17:57:22.317Z,23.42
2022-11-02T18:02:25.045Z,23.45
2022-11-02T18:07:27.819Z,23.49
2022-11-02T18:12:31.900Z,23.51
2022-11-02T18:17:35.205Z,23.55
2022-11-02T18:22:38.781Z,23.57
2022-11-02T18:27:43.113Z,23.59
2022-11-02T18:32:47.446Z,23.63
2022-11-02T18:37:50.639Z,23.62
2022-11-02T18:42:54.748Z,23.67
2022-11-02T18:47:57.723Z,23.72
2022-11-02T18:53:00.386Z,23.74
2022-11-02T18:58:04.731Z,23.77
2022-11-02T19:03:07.753Z,23.77
2022-11-02T19:08:28.483Z,23.80
2022-11-02T19:13:32.513Z,23.83
2022-11-02T19:18:35.323Z,23.83
2022-11-02T19:23:37.974Z,23.82
2022-11-02T19:28:42.314Z,23.87
2022-11-02T19:33:45.335Z,23.91
2022-11-02T19:38:48.096Z,23.92
2022-11-02T19:43:52.976Z,23.94
2022-11-02T19:48:56.990Z,23.96
2022-11-02T19:54:01.177Z,23.98
2022-11-02T19:59:06.548Z,23.98
2022-11-02T20:04:10.392Z,24.01
2022-11-02T20:09:16.243Z,24.00
2022-11-02T20:14:20.246Z,24.02
2022-11-02T20:19:23.193Z,24.05
2022-11-02T20:24:25.909Z,24.05
2022-11-02T20:29:30.245Z,24.10
2022-11-02T20:34:32.849Z,24.07
2022-11-02T20:39:35.548Z,24.07
2022-11-02T20:44:39.657Z,24.08
2022-11-02T20:49:50.612Z,24.08
2022-11-02T20:54:53.950Z,24.08
2022-11-02T20:59:57.926Z,24.00
2022-11-02T21:05:00.541Z,24.04
2022-11-02T21:10:03.405Z,24.02
2022-11-02T21:15:08.356Z,24.03
2022-11-02T21:20:33.189Z,24.11
2022-11-02T21:25:37.244Z,24.08
2022-11-02T21:30:41.230Z,24.06
2022-11-02T21:35:43.884Z,24.03
2022-11-02T21:40:46.504Z,24.02
2022-11-02T21:45:53.971Z,24.05
2022-11-02T21:51:00.918Z,24.05
2022-11-02T21:56:05.765Z,24.05
2022-11-02T22:01:32.256Z,24.02
2022-11-02T22:06:37.410Z,24.11
2022-11-02T22:11:40.542Z,24.13
2022-11-02T22:16:44.799Z,24.12
2022-11-02T22:21:48.779Z,24.11
2022-11-02T22:26:52.055Z,24.10
2022-11-02T22:31:56.143Z,24.05
2022-11-02T22:37:18.728Z,24.04
2022-11-02T22:42:21.795Z,24.02
2022-11-02T22:47:25.888Z,24.01
2022-11-02T22:52:28.552Z,24.01
2022-11-02T22:57:31.218Z,23.98
2022-11-02T23:02:35.110Z,23.93
2022-11-02T23:07:37.695Z,23.90
2022-11-02T23:12:40.321Z,23.87
2022-11-02T23:17:44.390Z,23.82
2022-11-02T23:23:04.313Z,23.79
2022-11-02T23:33:36.106Z,23.67
2022-11-02T23:38:56.650Z,23.63
2022-11-02T23:44:12.521Z,23.58
2022-11-02T23:49:17.928Z,23.51
2022-11-02T23:54:38.048Z,23.44
2022-11-02T23:59:40.843Z,23.39
